x

Northern Hawaii One - 245nm Ne Of Honolulu Hi (51000) Wave Buoy

12:50pm - Sun 24th May 2015 All times are HST. -10 hours from GMT.

  • Sig Wave height 8.9ft
  • Peak Period 10s
  • Average Period 7s
  • Wind
    7mph, 20mph gusts
  • Sea Temp 69°f
  • Air Temp 64°f
  • Sea Pressure 1021mb
  • Northern Hawaii One - 245nm Ne Of Honolulu Hi
  • Northern Hawaii One - 245nm Ne Of Honolulu Hi

More Historic Weather Station data

Upgrade to MSW Pro to gain access to the past 30 days of data for over 8000 Wavebouys and Weather Stations around the globe.

Join Pro

Comparision Forecast

View Surf forecast
   
Sun 05/24 12:50pm 9ft 10s 7s 7 20 mph 1021mb 69f 64f
11:50am 8ft 10s 6s 11 22 mph 1021.6mb 69f 64f
10:50am 9ft 10s 7s 11 25 mph 1021.8mb 69f 64f
9:50am 9ft 10s 7s 13 22 mph 1021.9mb 68f 64f
8:50am 8ft 9s 6s 11 20 mph 1021.9mb 68f 64f
7:50am 9ft 10s 7s 11 20 mph 1021.7mb 68f 64f
6:50am 9ft 8s 7s 9 22 mph 1021.5mb 68f 64f
5:50am 9ft 10s 7s 13 22 mph 1021.1mb 68f 64f
4:50am 9.5ft 10s 7s 9 22 mph 1021mb 68f 64f
3:50am 9ft 11s 7s 11 20 mph 1020.9mb 68f 64f
2:50am 9ft 8s 7s 11 20 mph 1021.2mb 68f 64f
1:50am 9ft 9s 7s 13 22 mph 1021.2mb 68f 64f
12:50am 9ft 11s 7s 13 22 mph 1021.6mb 68f 64f
Sat 05/23 11:50pm 9.5ft 10s 7s 16 22 mph 1021.9mb 68f 64f
10:50pm 9.5ft 10s 7s 13 22 mph 1022.1mb 68f 64f
9:50pm  -   -   -  13 22 mph 1022.1mb 68f 64f
8:50pm 9ft 10s 7s 13 22 mph 1021.8mb 68f 64f
7:50pm 9ft 10s 7s 13 22 mph 1021.3mb 68f 64f
6:50pm 9.5ft 10s 7s 11 20 mph 1020.6mb 68f 64f
5:50pm 9ft 10s 7s 13 20 mph 1020.4mb 68f 64f
4:50pm 8.5ft 10s 7s 13 22 mph 1020.4mb 68f 64f
3:50pm 8ft 7s 6s 11 20 mph 1020.6mb 68f 64f
2:50pm 8ft 9s 7s 13 22 mph 1021.2mb 68f 64f
1:50pm 9ft 10s 7s 16 22 mph 1021.5mb 68f 64f
12:50pm 8ft 9s 7s 13 20 mph 1021.7mb 68f 64f
11:50am 7.5ft 8s 6s 11 20 mph 1021.8mb 68f 64f
10:50am 8.5ft 8s 6s 16 25 mph 1021.5mb 68f 64f
9:50am 8ft 7s 6s 13 20 mph 1021.4mb 68f 64f
8:50am 8ft 8s 6s 16 25 mph 1021.3mb 67f 63f
7:50am 8.5ft 8s 7s 13 20 mph 1020.8mb 67f 64f
6:50am 9ft 8s 7s 18 22 mph 1020.6mb 67f 64f
5:50am 8.5ft 8s 6s 16 22 mph 1020.1mb 67f 63f
4:50am 8ft 8s 6s 18 25 mph 1019.5mb 67f 63f
3:50am 9ft 8s 7s 11 20 mph 1019.6mb 68f 64f
2:50am 8ft 10s 6s 16 22 mph 1019.6mb 68f 64f
1:50am  -   -   -  16 25 mph 1019.9mb 68f 63f
12:50am 8ft 8s 7s 18 25 mph 1020.3mb 68f 63f
Fri 05/22 11:50pm 8ft 8s 6s 18 25 mph 1020.5mb 68f 63f
10:50pm 8.5ft 8s 7s 18 22 mph 1020.8mb 68f 64f
9:50pm 8.5ft 8s 6s 18 27 mph 1020.6mb 68f 64f
8:50pm 9ft 8s 6s 16 22 mph 1019.9mb 68f 64f
7:50pm 9ft 8s 6s 18 27 mph 1019.3mb 69f 64f
6:50pm 8.5ft 11s 7s 18 27 mph 1018.5mb 69f 64f
5:50pm 9ft 8s 6s 16 25 mph 1018.2mb 69f 64f
4:50pm 8.5ft 8s 7s 18 25 mph 1018mb 69f 64f
3:50pm 8.5ft 8s 6s 16 25 mph 1017.9mb 69f 64f
2:50pm 8.5ft 8s 6s 18 27 mph 1018.1mb 69f 64f
1:50pm 8ft 7s 6s 16 22 mph 1018.3mb 69f 64f
12:50pm 8ft 8s 6s 13 22 mph 1018.4mb 69f 64f
11:50am 8.5ft 8s 6s 18 22 mph 1018.5mb 69f 64f
10:50am 8.5ft 8s 6s 18 25 mph 1018.1mb 69f 64f
9:50am 8.5ft 8s 6s 18 25 mph 1018mb 68f 65f
8:50am 9ft 8s 6s 18 25 mph 1017.5mb 68f 64f
7:50am 9ft 8s 6s 18 22 mph 1017.4mb 68f 64f
6:50am 9ft 8s 6s 16 20 mph 1017.1mb 68f 64f
5:50am 9ft 8s 6s 16 22 mph 1016.5mb 68f 64f
4:50am  -   -   -  16 22 mph 1016.1mb 69f 64f
3:50am 9ft 8s 6s 20 27 mph 1015.7mb 69f 65f
2:50am 8ft 8s 6s 20 27 mph 1015.5mb 69f 65f
1:50am 9ft 8s 6s 18 22 mph 1015.7mb 69f 65f
12:50am 9ft 8s 6s 20 25 mph 1015.9mb 69f 65f
Thu 05/21 11:50pm 9ft 8s 6s 20 25 mph 1016.1mb 69f 65f
10:50pm 9ft 8s 6s 20 27 mph 1016.1mb 70f 65f
9:50pm 9ft 8s 6s 25 29 mph 1015.4mb 70f 65f
8:50pm 9ft 8s 6s 22 29 mph 1014.9mb 70f 65f
7:50pm  -   -   -  25 31 mph 1014.5mb 71f 64f
6:50pm 8ft 8s 6s 20 27 mph 1013.9mb 71f 65f
5:50pm  -   -   -  18 22 mph 1014mb 71f 65f
4:50pm 7.5ft 8s 6s 18 25 mph 1014.1mb 71f 65f
3:50pm 7ft 8s 6s 16 25 mph 1014mb 71f 65f
2:50pm  -   -   -  18 25 mph 1014mb 71f 65f
1:50pm  -   -   -  22 27 mph 1013.9mb 71f 65f
12:50pm  -   -   -  25 31 mph 1014.2mb 71f 65f
11:50am 4ft 9s 5s 25 29 mph 1014.4mb 71f 65f
10:50am 3.5ft 8s 6s 20 27 mph 1014mb 71f 65f
9:50am 3.5ft 8s 6s 2 7 mph 1014.4mb 71f 68f
8:50am 3.5ft 9s 6s 2 7 mph 1014.8mb 71f 67f
7:50am 3.5ft 8s 5s 2 4 mph 1014.8mb 71f 68f
6:50am  -   -   -  4 7 mph 1014.6mb 71f 67f
5:50am 4ft 9s 5s 9 11 mph 1013.8mb 71f 67f
4:50am 3.5ft 9s 6s 13 20 mph 1015mb 71f 67f
3:50am 3.5ft 10s 6s 7 9 mph 1014.6mb 72f 69f
2:50am 3.5ft 9s 6s 13 18 mph 1014.8mb 72f 68f
1:50am  -   -   -  9 13 mph 1015.5mb 72f 71f
12:50am 3.5ft 10s 6s 11 13 mph 1016.4mb 72f 71f
Wed 05/20 11:50pm 3.5ft 9s 6s 9 11 mph 1017.3mb 72f 71f